Hampton, Illinois
Current Conditions -  °F | °C
As of 6:52 PM on Saturday 22 Nov 2014 (Local Time) from KDVN Reporting Station
Overcast Overcast  
Wind Chill: 53°   Ceiling: 1500
Heat Index: 53°   Visibility: 10mi
Dew Point: 48°   Wind: 13mph
Humidity: 83%   Direction: 190°S
Pressure: 29.8"   Gusts: NA
Location:  41.56°N, 90.41°W
Report Text: KDVN 230052Z AUTO 19011KT 10SM OVC015 12/09 A2980 RMK AO2 SLP094 T01170089
Loading
Personal Weather Stations






























Interactive Weather Map New forecast layout! Learn more

10-Day Weather Forecast

Advertisements
Track Severe Weather on mobile